createdAt,value
2023-04-23T00:01:48.684Z,8.99
2023-04-23T00:04:19.171Z,9.00
2023-04-23T00:06:47.999Z,8.86
2023-04-23T00:09:16.698Z,9.02
2023-04-23T00:11:43.618Z,8.99
2023-04-23T00:14:11.416Z,8.94
2023-04-23T00:16:39.955Z,8.89
2023-04-23T00:19:06.939Z,8.70
2023-04-23T00:21:33.769Z,8.63
2023-04-23T00:24:00.467Z,8.66
2023-04-23T00:26:27.086Z,8.02
2023-04-23T00:28:54.135Z,8.49
2023-04-23T00:31:22.674Z,8.54
2023-04-23T00:33:49.470Z,8.57
2023-04-23T00:36:16.093Z,8.51
2023-04-23T00:38:42.674Z,8.45
2023-04-23T00:41:09.293Z,8.44
2023-04-23T00:43:36.040Z,8.40
2023-04-23T00:46:02.887Z,8.39
2023-04-23T00:48:29.702Z,8.33
2023-04-23T00:51:03.385Z,7.82
2023-04-23T00:53:30.080Z,8.42
2023-04-23T00:55:57.866Z,8.33
2023-04-23T00:58:24.599Z,8.20
2023-04-23T01:00:52.584Z,7.95
2023-04-23T01:03:22.012Z,8.23
2023-04-23T01:05:52.005Z,8.26
2023-04-23T01:08:18.693Z,8.28
2023-04-23T01:10:46.131Z,8.30
2023-04-23T01:13:16.184Z,7.89
2023-04-23T01:15:44.728Z,8.27
2023-04-23T01:18:12.886Z,8.30
2023-04-23T01:20:39.663Z,8.35
2023-04-23T01:23:06.794Z,8.31
2023-04-23T01:25:33.545Z,7.49
2023-04-23T01:28:00.332Z,8.11
2023-04-23T01:30:28.226Z,8.24
2023-04-23T01:32:56.489Z,8.23
2023-04-23T01:35:24.230Z,8.20
2023-04-23T01:37:52.489Z,7.68
2023-04-23T01:40:20.944Z,8.10
2023-04-23T01:42:49.170Z,7.89
2023-04-23T01:45:17.720Z,7.57
2023-04-23T01:47:44.425Z,7.83
2023-04-23T01:50:11.497Z,7.88
2023-04-23T01:52:38.156Z,7.84
2023-04-23T01:55:05.279Z,7.88
2023-04-23T01:57:32.037Z,7.01
2023-04-23T02:00:08.285Z,7.92
2023-04-23T02:02:35.806Z,7.82
2023-04-23T02:05:06.225Z,7.84
2023-04-23T02:07:33.843Z,7.88
2023-04-23T02:10:01.909Z,7.96
2023-04-23T02:12:28.471Z,7.96
2023-04-23T02:14:55.497Z,7.70
2023-04-23T02:17:23.133Z,8.01
2023-04-23T02:19:50.297Z,7.84
2023-04-23T02:22:17.991Z,7.95
2023-04-23T02:24:44.643Z,7.51
2023-04-23T02:27:11.394Z,7.51
2023-04-23T02:29:37.989Z,7.86
2023-04-23T02:32:04.695Z,7.80
2023-04-23T02:34:31.332Z,7.87
2023-04-23T02:36:57.880Z,7.87
2023-04-23T02:39:24.512Z,7.96
2023-04-23T02:41:51.212Z,7.99
2023-04-23T02:44:17.926Z,7.99
2023-04-23T02:46:44.554Z,7.55
2023-04-23T02:49:11.206Z,7.57
2023-04-23T02:51:37.745Z,7.90
2023-04-23T02:54:04.529Z,7.38
2023-04-23T02:56:31.114Z,7.90
2023-04-23T02:58:57.745Z,7.65
2023-04-23T03:01:24.551Z,7.05
2023-04-23T03:03:51.427Z,7.80
2023-04-23T03:06:18.285Z,7.86
2023-04-23T03:08:44.877Z,7.43
2023-04-23T03:11:11.500Z,7.35
2023-04-23T03:13:38.153Z,7.48
2023-04-23T03:16:04.973Z,7.39
2023-04-23T03:18:31.564Z,7.86
2023-04-23T03:20:58.202Z,7.84
2023-04-23T03:23:25.005Z,7.87
2023-04-23T03:25:51.689Z,7.85
2023-04-23T03:28:18.331Z,7.85
2023-04-23T03:30:45.319Z,7.83
2023-04-23T03:33:11.965Z,7.70
2023-04-23T03:35:38.513Z,7.66
2023-04-23T03:38:05.156Z,7.72
2023-04-23T03:40:31.808Z,7.79
2023-04-23T03:42:58.610Z,7.31
2023-04-23T03:45:25.942Z,8.07
2023-04-23T03:47:52.581Z,7.64
2023-04-23T03:50:19.351Z,7.81
2023-04-23T03:52:45.955Z,8.04
2023-04-23T03:55:12.725Z,8.02
2023-04-23T03:57:39.512Z,7.66
2023-04-23T04:00:12.950Z,8.20
2023-04-23T04:02:41.044Z,8.21
2023-04-23T04:05:09.751Z,8.44
2023-04-23T04:07:37.275Z,8.46
2023-04-23T04:10:05.911Z,8.61
2023-04-23T04:12:32.540Z,8.53
2023-04-23T04:14:59.206Z,8.53
2023-04-23T04:17:25.903Z,8.79
2023-04-23T04:19:52.548Z,8.95
2023-04-23T04:22:19.152Z,9.01
2023-04-23T04:24:47.667Z,9.19
2023-04-23T04:27:14.769Z,9.07
2023-04-23T04:29:41.396Z,9.15
2023-04-23T04:32:09.356Z,9.11
2023-04-23T04:34:38.389Z,9.52
2023-04-23T04:37:05.332Z,9.61
2023-04-23T04:39:31.986Z,9.66
2023-04-23T04:41:59.954Z,9.73
2023-04-23T04:44:26.653Z,9.73
2023-04-23T04:46:53.960Z,9.99
2023-04-23T04:49:21.932Z,9.98
2023-04-23T04:51:48.611Z,9.40
2023-04-23T04:54:15.447Z,10.27
2023-04-23T04:56:42.052Z,10.47
2023-04-23T04:59:08.721Z,10.19
2023-04-23T05:01:36.173Z,10.57
2023-04-23T05:04:03.075Z,10.72
2023-04-23T05:06:29.882Z,10.86
2023-04-23T05:08:56.441Z,10.93
2023-04-23T05:11:23.070Z,10.77
2023-04-23T05:13:49.649Z,11.26
2023-04-23T05:16:16.714Z,10.96
2023-04-23T05:18:43.347Z,11.73
2023-04-23T05:21:10.041Z,11.27
2023-04-23T05:23:36.883Z,11.97
2023-04-23T05:26:03.960Z,12.18
2023-04-23T05:28:31.490Z,12.34
2023-04-23T05:30:58.582Z,12.71
2023-04-23T05:33:30.610Z,12.97
2023-04-23T05:35:59.695Z,13.20
2023-04-23T05:38:26.450Z,13.34
2023-04-23T05:40:53.244Z,13.39
2023-04-23T05:43:19.866Z,13.52
2023-04-23T05:45:46.692Z,13.59
2023-04-23T05:48:13.397Z,13.90
2023-04-23T05:50:40.086Z,13.53
2023-04-23T05:53:06.760Z,13.77
2023-04-23T05:55:33.315Z,11.87
2023-04-23T05:57:59.956Z,12.43
2023-04-23T06:00:26.625Z,12.78
2023-04-23T06:02:53.851Z,13.18
2023-04-23T06:05:20.951Z,12.90
2023-04-23T06:07:48.164Z,13.14
2023-04-23T06:10:14.793Z,12.87
2023-04-23T06:12:42.362Z,12.72
2023-04-23T06:15:10.048Z,12.74
2023-04-23T06:17:37.032Z,12.51
2023-04-23T06:20:05.206Z,12.71
2023-04-23T06:22:32.664Z,13.19
2023-04-23T06:24:59.488Z,13.57
2023-04-23T06:27:27.214Z,13.37
2023-04-23T06:29:54.060Z,13.17
2023-04-23T06:32:21.902Z,13.28
2023-04-23T06:35:00.151Z,12.34
2023-04-23T06:37:29.758Z,14.66
2023-04-23T06:39:56.639Z,14.48
2023-04-23T06:42:23.303Z,14.88
2023-04-23T06:44:51.845Z,15.55
2023-04-23T06:47:19.665Z,15.55
2023-04-23T06:49:46.345Z,16.29
2023-04-23T06:52:13.206Z,16.23
2023-04-23T06:54:40.205Z,15.99
2023-04-23T06:57:07.180Z,16.45
2023-04-23T06:59:33.799Z,16.03
2023-04-23T07:02:00.594Z,15.67
2023-04-23T07:04:27.230Z,15.14
2023-04-23T07:06:53.829Z,15.85
2023-04-23T07:09:20.710Z,15.62
2023-04-23T07:11:47.673Z,16.61
2023-04-23T07:14:14.197Z,16.19
2023-04-23T07:16:40.957Z,14.64
2023-04-23T07:19:07.542Z,15.61
2023-04-23T07:21:34.158Z,16.05
2023-04-23T07:24:03.415Z,16.20
2023-04-23T07:26:30.060Z,15.85
2023-04-23T07:28:56.782Z,15.60
2023-04-23T07:31:24.006Z,15.74
2023-04-23T07:33:50.659Z,15.37
2023-04-23T07:36:17.283Z,15.01
2023-04-23T07:38:43.924Z,15.61
2023-04-23T07:41:10.598Z,15.96
2023-04-23T07:43:39.076Z,16.35
2023-04-23T07:46:06.492Z,16.63
2023-04-23T07:48:34.681Z,16.75
2023-04-23T07:51:01.869Z,16.21
2023-04-23T07:53:29.241Z,16.04
2023-04-23T07:55:57.469Z,16.47
2023-04-23T07:58:26.813Z,16.79
2023-04-23T08:00:53.597Z,16.39
2023-04-23T08:03:20.551Z,16.53
2023-04-23T08:05:47.528Z,16.58
2023-04-23T08:08:14.153Z,16.40
2023-04-23T08:10:43.699Z,15.93
2023-04-23T08:13:11.124Z,15.85
2023-04-23T08:15:37.957Z,17.05
2023-04-23T08:18:04.983Z,17.13
2023-04-23T08:20:32.568Z,17.45
2023-04-23T08:22:59.388Z,17.98
2023-04-23T08:25:26.229Z,17.99
2023-04-23T08:27:53.189Z,17.24
2023-04-23T08:30:19.896Z,18.04
2023-04-23T08:32:49.618Z,18.18
2023-04-23T08:35:16.370Z,17.14
2023-04-23T08:37:43.078Z,17.10
2023-04-23T08:40:10.107Z,16.77
2023-04-23T08:42:41.937Z,17.60
2023-04-23T08:45:09.045Z,17.99
2023-04-23T08:47:37.171Z,18.30
2023-04-23T08:50:04.614Z,18.48
2023-04-23T08:52:34.899Z,18.64
2023-04-23T08:55:04.750Z,18.95
2023-04-23T08:57:31.868Z,19.08
2023-04-23T08:59:59.793Z,19.04
2023-04-23T09:02:27.798Z,19.61
2023-04-23T09:04:56.124Z,19.63
2023-04-23T09:07:23.440Z,18.88
2023-04-23T09:09:51.435Z,19.55
2023-04-23T09:12:18.126Z,19.55
2023-04-23T09:14:45.136Z,18.90
2023-04-23T09:17:12.093Z,19.62
2023-04-23T09:19:40.019Z,19.64
2023-04-23T09:22:07.791Z,19.95
2023-04-23T09:24:34.813Z,19.72
2023-04-23T09:27:01.477Z,19.57
2023-04-23T09:29:28.536Z,19.43
2023-04-23T09:31:56.882Z,19.31
2023-04-23T09:34:25.568Z,19.45
2023-04-23T09:36:53.265Z,18.66
2023-04-23T09:39:23.143Z,19.30
2023-04-23T09:41:52.220Z,19.36
2023-04-23T09:44:22.341Z,19.51
2023-04-23T09:46:49.480Z,19.53
2023-04-23T09:49:16.390Z,19.05
2023-04-23T09:51:46.228Z,19.23
2023-04-23T09:54:21.868Z,19.34
2023-04-23T09:56:53.992Z,19.83
2023-04-23T09:59:46.152Z,19.49
2023-04-23T10:02:14.282Z,19.79
2023-04-23T10:04:41.986Z,19.66
2023-04-23T10:09:43.316Z,20.64
2023-04-23T10:12:27.688Z,20.93
2023-04-23T10:14:59.820Z,19.70
2023-04-23T10:17:27.029Z,21.75
2023-04-23T10:19:55.747Z,21.65
2023-04-23T10:22:23.125Z,22.13
2023-04-23T10:24:56.033Z,22.50
2023-04-23T10:27:36.638Z,22.27
2023-04-23T10:30:12.081Z,22.23
2023-04-23T10:32:39.311Z,22.06
2023-04-23T10:35:07.364Z,21.67
2023-04-23T10:37:34.953Z,21.69
2023-04-23T10:40:09.222Z,21.92
2023-04-23T10:42:36.098Z,22.31
2023-04-23T10:45:22.515Z,22.49
2023-04-23T10:47:52.971Z,22.06
2023-04-23T10:50:28.231Z,22.26
2023-04-23T10:52:57.372Z,22.78
2023-04-23T10:55:29.355Z,23.18
2023-04-23T10:58:03.105Z,23.10
2023-04-23T11:00:43.312Z,23.29
2023-04-23T11:03:41.626Z,23.40
2023-04-23T11:06:15.800Z,23.49
2023-04-23T11:08:56.621Z,23.28
2023-04-23T11:11:41.198Z,23.32
2023-04-23T11:14:16.981Z,22.74
2023-04-23T11:16:43.809Z,22.83
2023-04-23T11:19:17.319Z,23.01
2023-04-23T11:21:54.798Z,22.97
2023-04-23T11:24:23.785Z,22.78
2023-04-23T11:26:56.825Z,22.63
2023-04-23T11:29:26.343Z,22.77
2023-04-23T11:32:02.225Z,21.76
2023-04-23T11:34:30.268Z,21.50
2023-04-23T11:36:59.065Z,21.24
2023-04-23T11:39:25.878Z,21.57
2023-04-23T11:41:53.218Z,21.57
2023-04-23T11:44:21.427Z,21.19
2023-04-23T11:46:49.475Z,20.87
2023-04-23T11:49:17.570Z,20.74
2023-04-23T11:51:45.713Z,20.06
2023-04-23T11:54:13.837Z,20.43
2023-04-23T11:56:41.709Z,20.82
2023-04-23T11:59:09.533Z,20.85
2023-04-23T12:01:50.710Z,20.86
2023-04-23T12:04:20.975Z,21.00
2023-04-23T12:06:49.481Z,20.98
2023-04-23T12:09:17.495Z,21.13
2023-04-23T12:11:45.713Z,20.83
2023-04-23T12:14:14.407Z,21.24
2023-04-23T12:16:43.101Z,20.88
2023-04-23T12:19:15.081Z,20.74
2023-04-23T12:22:01.042Z,21.20
2023-04-23T12:24:45.378Z,20.43
2023-04-23T12:27:15.997Z,18.98
2023-04-23T12:29:42.991Z,18.96
2023-04-23T12:32:11.820Z,18.45
2023-04-23T12:34:53.081Z,18.17
2023-04-23T12:37:25.403Z,17.86
2023-04-23T12:39:53.094Z,17.54
2023-04-23T12:42:19.720Z,16.95
2023-04-23T12:44:47.629Z,17.52
2023-04-23T12:47:19.475Z,17.18
2023-04-23T12:49:47.108Z,17.05
2023-04-23T12:52:14.207Z,16.86
2023-04-23T12:54:41.486Z,16.71
2023-04-23T12:57:12.282Z,16.21
2023-04-23T12:59:38.990Z,16.80
2023-04-23T13:02:06.907Z,16.76
2023-04-23T13:04:35.343Z,16.68
2023-04-23T13:07:02.327Z,16.38
2023-04-23T13:09:29.210Z,16.78
2023-04-23T13:11:56.045Z,16.86
2023-04-23T13:14:22.823Z,16.63
2023-04-23T13:16:49.730Z,17.33
2023-04-23T13:19:17.427Z,17.48
2023-04-23T13:21:45.057Z,17.91
2023-04-23T13:24:11.710Z,17.48
2023-04-23T13:26:38.605Z,18.20
2023-04-23T13:29:05.358Z,18.03
2023-04-23T13:31:32.285Z,18.21
2023-04-23T13:33:59.035Z,19.13
2023-04-23T13:36:26.201Z,19.06
2023-04-23T13:38:52.953Z,18.46
2023-04-23T13:41:19.586Z,19.70
2023-04-23T13:43:47.904Z,19.29
2023-04-23T13:46:14.693Z,18.61
2023-04-23T13:48:41.802Z,18.31
2023-04-23T13:51:17.932Z,18.47
2023-04-23T13:53:55.110Z,19.35
2023-04-23T13:56:21.754Z,20.48
2023-04-23T13:58:48.974Z,20.90
2023-04-23T14:01:15.870Z,20.22
2023-04-23T14:03:42.573Z,19.06
2023-04-23T14:06:09.242Z,19.13
2023-04-23T14:08:39.945Z,19.38
2023-04-23T14:11:06.631Z,19.79
2023-04-23T14:13:33.395Z,19.51
2023-04-23T14:16:02.894Z,19.48
2023-04-23T14:18:30.481Z,19.53
2023-04-23T14:20:57.224Z,19.14
2023-04-23T14:23:23.806Z,19.52
2023-04-23T14:25:57.907Z,19.54
2023-04-23T14:28:27.500Z,19.52
2023-04-23T14:30:56.370Z,19.14
2023-04-23T14:33:23.675Z,19.60
2023-04-23T14:35:50.265Z,19.60
2023-04-23T14:38:16.844Z,19.10
2023-04-23T14:40:43.601Z,19.86
2023-04-23T14:43:15.638Z,19.85
2023-04-23T14:45:42.926Z,20.45
2023-04-23T14:48:09.625Z,21.20
2023-04-23T14:50:36.520Z,21.27
2023-04-23T14:53:07.077Z,21.10
2023-04-23T14:55:34.100Z,20.69
2023-04-23T14:58:00.786Z,21.43
2023-04-23T15:00:27.804Z,23.05
2023-04-23T15:02:54.578Z,23.89
2023-04-23T15:05:21.374Z,24.76
2023-04-23T15:07:47.952Z,23.90
2023-04-23T15:10:15.058Z,23.35
2023-04-23T15:12:41.660Z,22.41
2023-04-23T15:15:22.227Z,21.54
2023-04-23T15:17:52.648Z,21.05
2023-04-23T15:20:19.463Z,20.71
2023-04-23T15:22:47.901Z,20.63
2023-04-23T15:25:14.529Z,20.31
2023-04-23T15:27:41.126Z,20.20
2023-04-23T15:30:08.262Z,20.28
2023-04-23T15:32:34.901Z,20.18
2023-04-23T15:35:01.592Z,20.16
2023-04-23T15:37:28.678Z,20.05
2023-04-23T15:39:57.937Z,19.85
2023-04-23T15:42:25.198Z,19.41
2023-04-23T15:44:54.709Z,19.91
2023-04-23T15:47:28.951Z,19.69
2023-04-23T15:49:57.500Z,19.44
2023-04-23T15:52:32.775Z,18.60
2023-04-23T15:54:59.795Z,19.02
2023-04-23T15:57:26.876Z,18.22
2023-04-23T15:59:55.705Z,17.94
2023-04-23T16:02:22.648Z,17.91
2023-04-23T16:04:51.357Z,18.07
2023-04-23T16:07:18.085Z,18.37
2023-04-23T16:09:44.724Z,18.13
2023-04-23T16:12:12.931Z,17.55
2023-04-23T16:14:40.379Z,17.41
2023-04-23T16:17:07.161Z,16.99
2023-04-23T16:19:34.079Z,16.70
2023-04-23T16:22:00.731Z,17.12
2023-04-23T16:24:27.316Z,17.02
2023-04-23T16:26:54.018Z,16.95
2023-04-23T16:29:22.819Z,17.22
2023-04-23T16:31:49.911Z,17.02
2023-04-23T16:34:16.751Z,17.51
2023-04-23T16:36:43.464Z,17.44
2023-04-23T16:39:11.192Z,17.77
2023-04-23T16:41:38.179Z,17.79
2023-04-23T16:44:05.380Z,17.66
2023-04-23T16:46:32.304Z,17.30
2023-04-23T16:48:59.665Z,17.36
2023-04-23T16:51:27.052Z,17.21
2023-04-23T16:53:53.947Z,17.12
2023-04-23T16:56:21.203Z,16.42
2023-04-23T16:58:47.912Z,16.77
2023-04-23T17:01:15.525Z,16.73
2023-04-23T17:03:42.528Z,16.59
2023-04-23T17:06:11.272Z,16.35
2023-04-23T17:08:39.011Z,16.11
2023-04-23T17:11:07.210Z,15.54
2023-04-23T17:13:34.846Z,15.48
2023-04-23T17:16:02.399Z,15.51
2023-04-23T17:18:29.632Z,15.33
2023-04-23T17:20:56.310Z,15.07
2023-04-23T17:23:23.219Z,14.76
2023-04-23T17:25:49.907Z,14.71
2023-04-23T17:28:18.482Z,14.66
2023-04-23T17:30:46.278Z,14.70
2023-04-23T17:33:14.238Z,14.25
2023-04-23T17:35:40.872Z,14.53
2023-04-23T17:38:07.450Z,14.34
2023-04-23T17:40:34.194Z,14.24
2023-04-23T17:43:01.031Z,14.18
2023-04-23T17:45:27.814Z,13.98
2023-04-23T17:47:54.791Z,13.52
2023-04-23T17:50:22.167Z,13.69
2023-04-23T17:52:49.090Z,13.66
2023-04-23T17:55:16.088Z,13.58
2023-04-23T17:57:45.678Z,13.56
2023-04-23T18:00:13.988Z,13.51
2023-04-23T18:02:41.020Z,13.29
2023-04-23T18:05:16.444Z,13.29
2023-04-23T18:07:44.399Z,13.06
2023-04-23T18:10:14.589Z,13.07
2023-04-23T18:12:41.373Z,12.68
2023-04-23T18:15:11.305Z,12.89
2023-04-23T18:17:39.063Z,12.46
2023-04-23T18:20:06.843Z,12.71
2023-04-23T18:22:33.726Z,12.10
2023-04-23T18:25:00.565Z,12.74
2023-04-23T18:27:27.667Z,12.59
2023-04-23T18:29:54.468Z,12.52
2023-04-23T18:32:33.660Z,12.39
2023-04-23T18:35:02.582Z,12.40
2023-04-23T18:37:44.008Z,12.35
2023-04-23T18:40:11.767Z,12.25
2023-04-23T18:42:38.664Z,11.73
2023-04-23T18:45:06.019Z,12.17
2023-04-23T18:47:38.464Z,11.84
2023-04-23T18:50:09.931Z,11.67
2023-04-23T18:52:36.843Z,11.43
2023-04-23T18:55:03.812Z,11.71
2023-04-23T18:57:30.758Z,11.75
2023-04-23T18:59:57.433Z,11.74
2023-04-23T19:02:34.588Z,11.70
2023-04-23T19:05:02.572Z,11.63
2023-04-23T19:07:29.354Z,10.98
2023-04-23T19:09:56.173Z,11.36
2023-04-23T19:12:22.910Z,11.17
2023-04-23T19:14:49.703Z,10.79
2023-04-23T19:17:18.686Z,10.81
2023-04-23T19:19:46.310Z,10.77
2023-04-23T19:22:13.250Z,10.85
2023-04-23T19:24:39.950Z,10.87
2023-04-23T19:27:07.306Z,11.04
2023-04-23T19:29:34.005Z,10.95
2023-04-23T19:32:01.036Z,10.77
2023-04-23T19:34:27.780Z,10.90
2023-04-23T19:36:54.658Z,10.93
2023-04-23T19:39:23.847Z,10.92
2023-04-23T19:41:50.851Z,10.73
2023-04-23T19:44:17.607Z,10.55
2023-04-23T19:46:44.522Z,10.54
2023-04-23T19:49:11.406Z,10.64
2023-04-23T19:51:38.657Z,10.56
2023-04-23T19:54:06.382Z,10.11
2023-04-23T19:56:33.159Z,9.92
2023-04-23T19:59:00.053Z,10.70
2023-04-23T20:01:28.355Z,10.62
2023-04-23T20:03:55.868Z,9.83
2023-04-23T20:06:22.474Z,10.37
2023-04-23T20:09:07.874Z,9.86
2023-04-23T20:11:36.215Z,9.37
2023-04-23T20:14:04.020Z,9.94
2023-04-23T20:16:30.845Z,9.79
2023-04-23T20:18:57.994Z,9.67
2023-04-23T20:21:24.935Z,9.62
2023-04-23T20:23:51.613Z,10.03
2023-04-23T20:26:19.367Z,10.03
2023-04-23T20:28:48.342Z,9.77
2023-04-23T20:31:15.216Z,9.70
2023-04-23T20:33:41.969Z,9.68
2023-04-23T20:36:10.980Z,9.83
2023-04-23T20:38:39.132Z,9.13
2023-04-23T20:41:06.204Z,9.33
2023-04-23T20:43:35.659Z,9.23
2023-04-23T20:46:02.400Z,9.29
2023-04-23T20:48:29.580Z,9.26
2023-04-23T20:50:57.003Z,8.57
2023-04-23T20:53:24.087Z,9.30
2023-04-23T20:55:50.873Z,8.87
2023-04-23T20:58:17.701Z,9.18
2023-04-23T21:00:44.497Z,9.00
2023-04-23T21:03:11.963Z,8.76
2023-04-23T21:05:40.410Z,8.99
2023-04-23T21:08:07.949Z,8.90
2023-04-23T21:10:34.657Z,9.03
2023-04-23T21:13:01.583Z,9.02
2023-04-23T21:15:29.739Z,8.52
2023-04-23T21:17:56.608Z,9.04
2023-04-23T21:20:23.472Z,9.13
2023-04-23T21:22:50.463Z,9.11
2023-04-23T21:25:17.494Z,8.49
2023-04-23T21:27:46.599Z,9.06
2023-04-23T21:30:50.923Z,9.11
2023-04-23T21:33:22.549Z,8.39
2023-04-23T21:35:53.157Z,9.03
2023-04-23T21:38:21.560Z,8.86
2023-04-23T21:40:48.348Z,8.90
2023-04-23T21:43:15.355Z,8.46
2023-04-23T21:45:42.149Z,8.77
2023-04-23T21:48:09.180Z,8.07
2023-04-23T21:50:36.263Z,8.61
2023-04-23T21:53:04.097Z,8.66
2023-04-23T21:55:31.763Z,8.63
2023-04-23T21:58:09.847Z,8.63
2023-04-23T22:00:44.572Z,8.60
2023-04-23T22:03:12.001Z,8.58
2023-04-23T22:05:40.046Z,8.40
2023-04-23T22:08:09.636Z,8.06
2023-04-23T22:10:42.850Z,8.07
2023-04-23T22:13:10.207Z,8.21
2023-04-23T22:15:37.015Z,7.53
2023-04-23T22:18:03.799Z,8.19
2023-04-23T22:20:30.700Z,7.48
2023-04-23T22:22:57.430Z,7.63
2023-04-23T22:25:24.196Z,8.10
2023-04-23T22:27:50.991Z,7.88
2023-04-23T22:30:17.674Z,8.03
2023-04-23T22:32:44.521Z,7.99
2023-04-23T22:35:11.122Z,8.06
2023-04-23T22:37:38.221Z,7.95
2023-04-23T22:40:05.516Z,7.76
2023-04-23T22:42:32.127Z,7.85
2023-04-23T22:44:58.783Z,7.93
2023-04-23T22:47:25.415Z,7.61
2023-04-23T22:49:52.067Z,7.55
2023-04-23T22:52:18.721Z,7.79
2023-04-23T22:54:45.650Z,7.36
2023-04-23T22:57:12.272Z,7.52
2023-04-23T22:59:40.188Z,7.06
2023-04-23T23:02:07.718Z,6.98
2023-04-23T23:04:37.703Z,7.04
2023-04-23T23:07:08.077Z,7.22
2023-04-23T23:09:35.072Z,7.10
2023-04-23T23:12:03.630Z,7.11
2023-04-23T23:14:30.537Z,7.08
2023-04-23T23:16:57.436Z,7.12
2023-04-23T23:19:26.476Z,7.14
2023-04-23T23:21:53.113Z,7.32
2023-04-23T23:24:19.943Z,4.92
2023-04-23T23:26:46.775Z,7.32
2023-04-23T23:29:13.410Z,7.20
2023-04-23T23:31:40.226Z,7.18
2023-04-23T23:34:06.870Z,6.62
2023-04-23T23:36:34.203Z,7.06
2023-04-23T23:39:01.418Z,7.03
2023-04-23T23:41:27.974Z,6.94
2023-04-23T23:43:54.800Z,6.78
2023-04-23T23:46:21.649Z,6.83
2023-04-23T23:48:48.563Z,6.90
2023-04-23T23:51:16.034Z,6.92
2023-04-23T23:53:42.702Z,6.73
2023-04-23T23:56:09.247Z,6.64
2023-04-23T23:58:35.802Z,6.58
